Ladario, Brazil
Current Conditions -  °F | °C
As of 12:00 PM on Tuesday 21 Oct 2014 (Local Time) from SBCR Reporting Station
Scattered Clouds Scattered Clouds  
Wind Chill: 84°   Ceiling: Unl
Heat Index: 90°   Visibility: 6mi
Dew Point: 72°   Wind: 3mph
Humidity: 66%   Direction: 360°N
Pressure: 29.97"   Gusts: NA
Location:  19°S, 57.6°W
Report Text: SBCR 211500Z 36003KT 9999 SCT025 FEW028TCU 29/22 Q1015
Loading
Personal Weather Stations






























Interactive Weather Map
Tropical Storm Tracking
New forecast layout! Learn more

10-Day Weather Forecast

Advertisements
Track Severe Weather on mobile